createdAt,value
2023-10-14T00:02:09.990Z,6.43
2023-10-14T00:04:38.048Z,5.38
2023-10-14T00:07:10.169Z,5.80
2023-10-14T00:09:45.245Z,6.23
2023-10-14T00:12:16.282Z,6.10
2023-10-14T00:14:48.027Z,6.63
2023-10-14T00:17:22.400Z,5.03
2023-10-14T00:19:57.637Z,8.15
2023-10-14T00:22:28.022Z,5.20
2023-10-14T00:24:56.157Z,7.30
2023-10-14T00:27:25.263Z,6.55
2023-10-14T00:30:07.208Z,5.45
2023-10-14T00:32:34.931Z,5.63
2023-10-14T00:35:05.516Z,7.57
2023-10-14T00:37:34.480Z,5.15
2023-10-14T00:40:07.751Z,5.18
2023-10-14T00:42:35.412Z,7.63
2023-10-14T00:45:03.100Z,5.00
2023-10-14T00:47:32.132Z,5.10
2023-10-14T00:50:03.788Z,6.75
2023-10-14T00:52:31.772Z,7.50
2023-10-14T00:55:00.316Z,5.30
2023-10-14T00:57:39.653Z,5.60
2023-10-14T01:00:12.244Z,5.83
2023-10-14T01:02:40.114Z,5.60
2023-10-14T01:05:09.489Z,5.93
2023-10-14T01:07:40.477Z,8.02
2023-10-14T01:10:12.668Z,5.43
2023-10-14T01:12:40.556Z,5.60
2023-10-14T01:15:20.569Z,6.05
2023-10-14T01:17:49.534Z,6.03
2023-10-14T01:20:19.776Z,7.30
2023-10-14T01:22:53.030Z,7.30
2023-10-14T01:25:20.903Z,8.80
2023-10-14T01:27:48.604Z,5.60
2023-10-14T01:30:21.734Z,5.65
2023-10-14T01:32:49.463Z,5.80
2023-10-14T01:35:32.697Z,5.15
2023-10-14T01:38:01.858Z,6.60
2023-10-14T01:40:38.622Z,6.75
2023-10-14T01:43:10.392Z,4.80
2023-10-14T01:46:01.802Z,4.70
2023-10-14T01:48:32.819Z,4.40
2023-10-14T01:51:01.334Z,6.20
2023-10-14T01:53:33.914Z,6.45
2023-10-14T01:56:03.119Z,6.97
2023-10-14T01:58:32.482Z,6.43
2023-10-14T02:01:24.379Z,6.35
2023-10-14T02:03:53.624Z,8.27
2023-10-14T02:06:28.388Z,5.32
2023-10-14T02:08:59.649Z,7.00
2023-10-14T02:11:34.930Z,5.15
2023-10-14T02:14:09.807Z,7.15
2023-10-14T02:16:46.336Z,7.60
2023-10-14T02:19:38.437Z,8.07
2023-10-14T02:22:11.371Z,9.98
2023-10-14T02:24:39.534Z,6.45
2023-10-14T02:27:16.049Z,6.35
2023-10-14T02:29:48.491Z,4.77
2023-10-14T02:32:16.734Z,7.10
2023-10-14T02:34:46.264Z,7.28
2023-10-14T02:37:17.195Z,5.30
2023-10-14T02:39:45.374Z,6.38
2023-10-14T02:42:16.814Z,7.57
2023-10-14T02:44:54.268Z,9.77
2023-10-14T02:47:22.043Z,7.53
2023-10-14T02:50:07.164Z,8.32
2023-10-14T02:52:40.307Z,7.40
2023-10-14T02:55:22.630Z,5.13
2023-10-14T02:57:50.620Z,6.45
2023-10-14T03:00:32.230Z,6.03
2023-10-14T03:03:16.558Z,9.25
2023-10-14T03:05:53.739Z,7.00
2023-10-14T03:08:22.363Z,6.30
2023-10-14T03:11:01.365Z,6.90
2023-10-14T03:13:31.189Z,6.53
2023-10-14T03:15:59.779Z,7.68
2023-10-14T03:18:39.110Z,6.15
2023-10-14T03:21:26.990Z,7.07
2023-10-14T03:23:58.279Z,7.00
2023-10-14T03:26:33.742Z,9.30
2023-10-14T03:29:06.455Z,7.00
2023-10-14T03:31:37.291Z,7.93
2023-10-14T03:34:10.214Z,6.80
2023-10-14T03:36:37.877Z,6.15
2023-10-14T03:39:22.576Z,6.90
2023-10-14T03:41:54.195Z,6.78
2023-10-14T03:44:25.195Z,7.03
2023-10-14T03:47:01.368Z,7.20
2023-10-14T03:49:29.757Z,6.47
2023-10-14T03:52:00.319Z,8.43
2023-10-14T03:54:30.392Z,7.00
2023-10-14T03:57:05.318Z,9.02
2023-10-14T03:59:35.034Z,14.00
2023-10-14T04:02:06.818Z,7.90
2023-10-14T04:04:36.254Z,7.32
2023-10-14T04:07:04.266Z,7.07
2023-10-14T04:09:51.847Z,8.80
2023-10-14T04:12:39.535Z,7.43
2023-10-14T04:15:14.084Z,7.05
2023-10-14T04:17:48.105Z,7.18
2023-10-14T04:20:16.117Z,9.55
2023-10-14T04:22:43.893Z,9.18
2023-10-14T04:25:22.843Z,7.73
2023-10-14T04:27:52.928Z,8.55
2023-10-14T04:30:31.169Z,6.50
2023-10-14T04:33:03.136Z,5.93
2023-10-14T04:35:35.124Z,8.65
2023-10-14T04:38:26.276Z,9.03
2023-10-14T04:40:59.691Z,6.60
2023-10-14T04:43:27.357Z,6.30
2023-10-14T04:46:16.995Z,9.18
2023-10-14T04:49:01.352Z,6.97
2023-10-14T04:51:58.304Z,6.90
2023-10-14T04:54:27.132Z,7.05
2023-10-14T04:56:59.343Z,6.40
2023-10-14T04:59:29.459Z,7.20
2023-10-14T05:01:57.498Z,9.38
2023-10-14T05:04:32.241Z,6.47
2023-10-14T05:07:05.661Z,7.25
2023-10-14T05:09:41.126Z,9.05
2023-10-14T05:12:09.833Z,9.68
2023-10-14T05:14:38.740Z,7.63
2023-10-14T05:17:12.732Z,9.17
2023-10-14T05:19:43.827Z,11.45
2023-10-14T05:22:15.150Z,7.10
2023-10-14T05:24:50.120Z,10.43
2023-10-14T05:27:37.154Z,7.57
2023-10-14T05:30:09.008Z,9.30
2023-10-14T05:32:37.772Z,8.20
2023-10-14T05:35:11.553Z,7.28
2023-10-14T05:37:43.054Z,7.80
2023-10-14T05:40:17.542Z,8.15
2023-10-14T05:42:47.390Z,8.87
2023-10-14T05:45:15.728Z,6.90
2023-10-14T05:47:44.264Z,9.55
2023-10-14T05:50:18.111Z,7.70
2023-10-14T05:52:51.114Z,8.88
2023-10-14T05:55:21.677Z,7.83
2023-10-14T05:57:51.328Z,8.20
2023-10-14T06:00:22.587Z,7.70
2023-10-14T06:02:53.463Z,8.85
2023-10-14T06:05:27.856Z,10.05
2023-10-14T06:08:01.831Z,8.60
2023-10-14T06:10:37.899Z,7.28
2023-10-14T06:13:10.337Z,7.03
2023-10-14T06:15:42.946Z,6.95
2023-10-14T06:18:10.784Z,8.35
2023-10-14T06:20:38.646Z,10.93
2023-10-14T06:23:09.429Z,8.88
2023-10-14T06:25:39.800Z,9.50
2023-10-14T06:28:09.180Z,7.80
2023-10-14T06:30:36.976Z,9.93
2023-10-14T06:33:08.314Z,8.20
2023-10-14T06:35:38.829Z,8.25
2023-10-14T06:38:06.605Z,8.30
2023-10-14T06:40:37.107Z,8.77
2023-10-14T06:43:10.677Z,10.00
2023-10-14T06:45:39.323Z,8.37
2023-10-14T06:48:13.900Z,12.88
2023-10-14T06:50:44.234Z,13.18
2023-10-14T06:53:12.706Z,9.35
2023-10-14T06:55:43.266Z,11.55
2023-10-14T06:58:20.484Z,8.63
2023-10-14T07:00:49.994Z,9.07
2023-10-14T07:03:18.487Z,8.00
2023-10-14T07:05:49.875Z,8.65
2023-10-14T07:08:21.035Z,10.55
2023-10-14T07:10:52.065Z,12.27
2023-10-14T07:13:22.632Z,9.10
2023-10-14T07:15:52.099Z,10.40
2023-10-14T07:18:24.733Z,10.98
2023-10-14T07:21:14.591Z,8.07
2023-10-14T07:23:43.160Z,12.33
2023-10-14T07:26:13.563Z,10.27
2023-10-14T07:28:47.920Z,9.30
2023-10-14T07:31:15.790Z,9.00
2023-10-14T07:33:45.177Z,7.47
2023-10-14T07:36:15.922Z,11.40
2023-10-14T07:38:46.378Z,8.68
2023-10-14T07:41:15.602Z,7.55
2023-10-14T07:43:43.364Z,7.93
2023-10-14T07:46:11.369Z,8.48
2023-10-14T07:48:41.776Z,8.57
2023-10-14T07:51:22.734Z,8.43
2023-10-14T07:54:02.070Z,9.18
2023-10-14T07:56:29.814Z,8.88
2023-10-14T07:58:58.106Z,9.38
2023-10-14T08:01:26.986Z,8.37
2023-10-14T08:03:59.216Z,9.50
2023-10-14T08:06:27.842Z,8.35
2023-10-14T08:08:55.833Z,9.02
2023-10-14T08:11:23.625Z,9.30
2023-10-14T08:13:51.470Z,11.47
2023-10-14T08:16:21.463Z,7.30
2023-10-14T08:18:50.220Z,8.88
2023-10-14T08:21:18.109Z,7.85
2023-10-14T08:23:45.725Z,11.18
2023-10-14T08:26:16.275Z,8.43
2023-10-14T08:28:44.176Z,8.32
2023-10-14T08:31:13.583Z,9.55
2023-10-14T08:33:44.935Z,7.57
2023-10-14T08:36:15.048Z,10.27
2023-10-14T08:38:45.309Z,10.70
2023-10-14T08:41:15.834Z,10.40
2023-10-14T08:43:51.294Z,10.45
2023-10-14T08:46:20.272Z,12.18
2023-10-14T08:48:51.745Z,10.50
2023-10-14T08:51:22.394Z,10.07
2023-10-14T08:53:54.828Z,11.45
2023-10-14T08:56:23.984Z,10.35
2023-10-14T08:58:51.666Z,7.35
2023-10-14T09:01:23.926Z,9.30
2023-10-14T09:03:51.873Z,10.00
2023-10-14T09:06:20.552Z,7.63
2023-10-14T09:08:55.998Z,6.45
2023-10-14T09:11:35.002Z,8.43
2023-10-14T09:14:04.946Z,7.57
2023-10-14T09:16:38.161Z,8.03
2023-10-14T09:19:06.863Z,8.88
2023-10-14T09:21:44.500Z,7.97
2023-10-14T09:24:12.652Z,10.38
2023-10-14T09:26:45.287Z,8.65
2023-10-14T09:29:13.432Z,9.80
2023-10-14T09:31:42.162Z,8.60
2023-10-14T09:34:22.970Z,7.95
2023-10-14T09:36:53.668Z,6.13
2023-10-14T09:39:26.421Z,8.18
2023-10-14T09:41:55.307Z,10.37
2023-10-14T09:44:23.740Z,7.53
2023-10-14T09:46:54.315Z,8.05
2023-10-14T09:49:24.621Z,6.05
2023-10-14T09:51:55.487Z,5.95
2023-10-14T09:54:25.174Z,7.83
2023-10-14T09:56:54.410Z,7.43
2023-10-14T09:59:23.789Z,8.93
2023-10-14T10:01:51.837Z,8.15
2023-10-14T10:04:27.797Z,7.93
2023-10-14T10:07:09.584Z,6.50
2023-10-14T10:09:59.277Z,8.82
2023-10-14T10:12:31.967Z,7.50
2023-10-14T10:15:05.084Z,6.40
2023-10-14T10:17:40.826Z,7.63
2023-10-14T10:20:11.842Z,8.43
2023-10-14T10:22:44.617Z,7.10
2023-10-14T10:25:16.323Z,7.22
2023-10-14T10:27:45.991Z,6.15
2023-10-14T10:30:16.146Z,7.15
2023-10-14T10:32:50.305Z,5.90
2023-10-14T10:35:19.932Z,7.60
2023-10-14T10:37:58.704Z,8.10
2023-10-14T10:40:28.283Z,8.35
2023-10-14T10:43:21.828Z,5.95
2023-10-14T10:45:53.702Z,6.90
2023-10-14T10:48:24.699Z,6.75
2023-10-14T10:50:52.894Z,7.00
2023-10-14T10:53:21.871Z,7.25
2023-10-14T10:55:53.269Z,6.38
2023-10-14T10:58:23.681Z,7.70
2023-10-14T11:00:53.158Z,6.53
2023-10-14T11:03:21.065Z,7.55
2023-10-14T11:05:49.434Z,6.28
2023-10-14T11:08:17.637Z,5.97
2023-10-14T11:10:46.959Z,6.80
2023-10-14T11:13:17.793Z,5.53
2023-10-14T11:15:48.018Z,6.75
2023-10-14T11:18:31.531Z,7.95
2023-10-14T11:21:04.815Z,5.78
2023-10-14T11:23:37.227Z,5.33
2023-10-14T11:26:12.940Z,6.05
2023-10-14T11:28:46.467Z,6.20
2023-10-14T11:31:14.670Z,6.57
2023-10-14T11:33:49.295Z,5.00
2023-10-14T11:36:19.562Z,5.53
2023-10-14T11:38:50.500Z,6.28
2023-10-14T11:41:19.374Z,6.95
2023-10-14T11:43:47.544Z,5.38
2023-10-14T11:46:15.433Z,4.95
2023-10-14T11:48:47.897Z,4.93
2023-10-14T11:51:23.024Z,6.93
2023-10-14T11:53:54.442Z,6.03
2023-10-14T11:56:22.307Z,4.88
2023-10-14T11:58:52.110Z,5.47
2023-10-14T12:01:25.284Z,5.93
2023-10-14T12:03:54.246Z,5.40
2023-10-14T12:06:22.357Z,6.80
2023-10-14T12:08:53.386Z,7.82
2023-10-14T12:11:21.453Z,6.70
2023-10-14T12:13:51.289Z,4.70
2023-10-14T12:16:20.661Z,5.40
2023-10-14T12:18:50.392Z,7.05
2023-10-14T12:21:18.312Z,5.93
2023-10-14T12:23:47.717Z,4.30
2023-10-14T12:26:37.503Z,5.53
2023-10-14T12:29:21.221Z,6.10
2023-10-14T12:31:49.518Z,7.30
2023-10-14T12:34:20.958Z,5.05
2023-10-14T12:36:48.643Z,6.50
2023-10-14T12:39:42.537Z,6.00
2023-10-14T12:42:10.485Z,9.45
2023-10-14T12:44:38.154Z,6.40
2023-10-14T12:47:15.719Z,5.35
2023-10-14T12:49:44.047Z,6.75
2023-10-14T12:52:14.732Z,7.00
2023-10-14T12:54:47.345Z,5.50
2023-10-14T12:57:15.729Z,4.82
2023-10-14T12:59:43.539Z,5.47
2023-10-14T13:02:11.455Z,5.68
2023-10-14T13:04:43.341Z,4.97
2023-10-14T13:07:11.288Z,7.22
2023-10-14T13:09:40.144Z,5.63
2023-10-14T13:12:17.711Z,4.72
2023-10-14T13:14:46.752Z,5.20
2023-10-14T13:17:14.578Z,4.77
2023-10-14T13:19:42.995Z,5.43
2023-10-14T13:22:11.521Z,5.88
2023-10-14T13:24:40.039Z,5.07
2023-10-14T13:27:08.314Z,4.75
2023-10-14T13:29:42.749Z,5.60
2023-10-14T13:32:15.873Z,5.13
2023-10-14T13:34:46.838Z,4.93
2023-10-14T13:37:15.881Z,4.65
2023-10-14T13:39:44.146Z,4.40
2023-10-14T13:42:12.918Z,6.13
2023-10-14T13:44:41.315Z,5.90
2023-10-14T13:47:09.373Z,6.75
2023-10-14T13:49:37.216Z,6.00
2023-10-14T13:52:05.790Z,5.40
2023-10-14T13:54:34.506Z,6.17
2023-10-14T13:57:02.880Z,6.55
2023-10-14T13:59:30.931Z,4.82
2023-10-14T14:01:58.709Z,4.63
2023-10-14T14:04:26.687Z,6.05
2023-10-14T14:06:55.680Z,5.93
2023-10-14T14:09:25.652Z,4.88
2023-10-14T14:11:57.918Z,5.43
2023-10-14T14:14:26.996Z,5.63
2023-10-14T14:16:55.387Z,6.20
2023-10-14T14:19:23.901Z,5.10
2023-10-14T14:21:53.281Z,5.03
2023-10-14T14:24:23.960Z,6.63
2023-10-14T14:26:57.471Z,8.57
2023-10-14T14:29:25.334Z,7.05
2023-10-14T14:31:53.295Z,7.40
2023-10-14T14:34:26.435Z,5.88
2023-10-14T14:36:54.171Z,5.85
2023-10-14T14:39:21.980Z,6.95
2023-10-14T14:41:54.021Z,5.50
2023-10-14T14:44:21.723Z,6.10
2023-10-14T14:46:50.866Z,5.35
2023-10-14T14:49:18.935Z,7.55
2023-10-14T14:51:47.110Z,6.68
2023-10-14T14:54:14.932Z,6.88
2023-10-14T14:56:42.600Z,7.23
2023-10-14T14:59:15.070Z,7.22
2023-10-14T15:01:43.520Z,6.57
2023-10-14T15:04:11.498Z,6.65
2023-10-14T15:06:39.938Z,6.40
2023-10-14T15:09:16.065Z,6.87
2023-10-14T15:11:45.710Z,7.47
2023-10-14T15:14:17.379Z,5.45
2023-10-14T15:16:45.383Z,10.02
2023-10-14T15:19:17.350Z,5.55
2023-10-14T15:21:50.468Z,6.57
2023-10-14T15:24:19.303Z,7.20
2023-10-14T15:26:48.961Z,7.18
2023-10-14T15:29:17.382Z,7.25
2023-10-14T15:31:46.909Z,8.88
2023-10-14T15:34:15.602Z,8.50
2023-10-14T15:36:45.361Z,9.90
2023-10-14T15:39:21.120Z,11.15
2023-10-14T15:41:48.797Z,8.95
2023-10-14T15:44:16.643Z,8.15
2023-10-14T15:46:44.580Z,9.70
2023-10-14T15:49:12.364Z,7.40
2023-10-14T15:51:40.069Z,10.55
2023-10-14T15:54:07.951Z,9.85
2023-10-14T15:56:35.824Z,10.88
2023-10-14T15:59:06.518Z,9.03
2023-10-14T16:01:37.232Z,7.13
2023-10-14T16:04:05.718Z,9.32
2023-10-14T16:06:33.614Z,11.23
2023-10-14T16:09:01.327Z,11.05
2023-10-14T16:11:30.378Z,9.93
2023-10-14T16:14:01.378Z,7.30
2023-10-14T16:16:29.973Z,11.80
2023-10-14T16:19:02.185Z,9.32
2023-10-14T16:21:30.175Z,11.25
2023-10-14T16:23:57.859Z,10.23
2023-10-14T16:26:25.857Z,11.15
2023-10-14T16:28:55.362Z,9.77
2023-10-14T16:31:24.120Z,11.38
2023-10-14T16:33:52.002Z,10.68
2023-10-14T16:36:19.612Z,11.13
2023-10-14T16:38:47.653Z,10.90
2023-10-14T16:41:16.760Z,12.02
2023-10-14T16:43:44.576Z,11.82
2023-10-14T16:46:15.671Z,9.25
2023-10-14T16:48:44.114Z,10.73
2023-10-14T16:51:14.977Z,14.23
2023-10-14T16:53:42.888Z,13.38
2023-10-14T16:56:15.447Z,7.60
2023-10-14T16:58:46.243Z,9.88
2023-10-14T17:01:16.405Z,9.03
2023-10-14T17:03:47.478Z,9.77
2023-10-14T17:06:16.603Z,7.95
2023-10-14T17:08:45.043Z,9.05
2023-10-14T17:11:13.709Z,10.90
2023-10-14T17:13:41.971Z,10.90
2023-10-14T17:16:17.824Z,10.18
2023-10-14T17:18:45.604Z,11.25
2023-10-14T17:21:13.317Z,10.38
2023-10-14T17:23:41.077Z,12.15
2023-10-14T17:26:09.009Z,8.63
2023-10-14T17:28:36.896Z,12.15
2023-10-14T17:31:07.690Z,10.93
2023-10-14T17:33:35.841Z,10.93
2023-10-14T17:36:09.310Z,8.95
2023-10-14T17:38:37.053Z,12.47
2023-10-14T17:41:05.819Z,8.30
2023-10-14T17:43:33.487Z,12.55
2023-10-14T17:46:02.503Z,9.32
2023-10-14T17:48:33.935Z,12.65
2023-10-14T17:51:01.552Z,12.27
2023-10-14T17:53:29.245Z,9.43
2023-10-14T17:56:17.263Z,9.57
2023-10-14T17:58:45.420Z,14.13
2023-10-14T18:01:14.047Z,11.63
2023-10-14T18:03:45.536Z,8.03
2023-10-14T18:06:14.038Z,11.45
2023-10-14T18:08:41.825Z,9.82
2023-10-14T18:11:09.447Z,10.35
2023-10-14T18:13:37.675Z,8.65
2023-10-14T18:16:09.908Z,10.87
2023-10-14T18:18:37.956Z,9.52
2023-10-14T18:21:11.091Z,8.20
2023-10-14T18:23:38.738Z,8.73
2023-10-14T18:26:11.691Z,7.05
2023-10-14T18:28:40.024Z,8.70
2023-10-14T18:31:14.332Z,8.50
2023-10-14T18:33:42.132Z,7.80
2023-10-14T18:36:11.465Z,9.77
2023-10-14T18:38:41.386Z,8.13
2023-10-14T18:41:14.015Z,9.80
2023-10-14T18:43:44.723Z,8.32
2023-10-14T18:46:14.231Z,7.85
2023-10-14T18:48:41.875Z,13.00
2023-10-14T18:51:17.833Z,11.75
2023-10-14T18:53:46.278Z,9.87
2023-10-14T18:56:22.360Z,9.93
2023-10-14T18:58:51.252Z,9.25
2023-10-14T19:01:19.227Z,10.73
2023-10-14T19:03:48.770Z,8.25
2023-10-14T19:06:17.962Z,7.90
2023-10-14T19:08:45.732Z,8.68
2023-10-14T19:11:13.802Z,9.48
2023-10-14T19:13:41.594Z,8.13
2023-10-14T19:16:11.214Z,9.38
2023-10-14T19:18:39.082Z,6.67
2023-10-14T19:21:09.863Z,7.80
2023-10-14T19:23:38.177Z,11.38
2023-10-14T19:26:06.253Z,7.88
2023-10-14T19:28:34.075Z,7.80
2023-10-14T19:31:03.912Z,11.97
2023-10-14T19:33:31.966Z,9.13
2023-10-14T19:36:05.116Z,10.00
2023-10-14T19:38:33.106Z,11.52
2023-10-14T19:41:05.758Z,9.90
2023-10-14T19:43:35.421Z,11.67
2023-10-14T19:46:10.651Z,8.02
2023-10-14T19:48:40.870Z,8.00
2023-10-14T19:51:15.030Z,7.47
2023-10-14T19:53:46.239Z,7.90
2023-10-14T19:56:15.795Z,7.73
2023-10-14T19:58:45.001Z,9.82
2023-10-14T20:01:17.093Z,8.85
2023-10-14T20:03:45.865Z,9.38
2023-10-14T20:06:19.600Z,7.28
2023-10-14T20:08:48.390Z,9.03
2023-10-14T20:11:16.494Z,6.13
2023-10-14T20:13:44.407Z,7.18
2023-10-14T20:16:12.824Z,5.53
2023-10-14T20:18:40.602Z,10.77
2023-10-14T20:21:08.235Z,10.03
2023-10-14T20:23:36.024Z,9.10
2023-10-14T20:26:11.763Z,9.98
2023-10-14T20:28:40.434Z,7.78
2023-10-14T20:31:12.586Z,9.48
2023-10-14T20:33:40.649Z,11.80
2023-10-14T20:36:09.411Z,11.38
2023-10-14T20:38:37.290Z,10.07
2023-10-14T20:41:09.363Z,7.80
2023-10-14T20:43:37.328Z,10.40
2023-10-14T20:46:10.590Z,9.10
2023-10-14T20:48:41.543Z,7.97
2023-10-14T20:51:12.590Z,7.13
2023-10-14T20:53:40.616Z,10.65
2023-10-14T20:56:17.279Z,9.93
2023-10-14T20:58:44.940Z,9.57
2023-10-14T21:01:15.368Z,8.65
2023-10-14T21:03:44.052Z,7.35
2023-10-14T21:06:12.549Z,7.07
2023-10-14T21:08:40.296Z,8.23
2023-10-14T21:11:12.195Z,7.33
2023-10-14T21:13:39.995Z,10.65
2023-10-14T21:16:07.757Z,9.00
2023-10-14T21:18:36.030Z,13.35
2023-10-14T21:21:11.424Z,8.15
2023-10-14T21:23:39.573Z,12.43
2023-10-14T21:26:08.240Z,9.27
2023-10-14T21:28:36.107Z,10.68
2023-10-14T21:31:04.349Z,7.60
2023-10-14T21:33:32.814Z,10.38
2023-10-14T21:36:00.519Z,9.73
2023-10-14T21:38:28.281Z,7.80
2023-10-14T21:40:56.688Z,6.70
2023-10-14T21:43:24.592Z,8.05
2023-10-14T21:45:52.797Z,7.65
2023-10-14T21:48:21.054Z,10.80
2023-10-14T21:50:49.965Z,11.13
2023-10-14T21:53:17.883Z,9.75
2023-10-14T21:55:46.393Z,9.13
2023-10-14T21:58:15.671Z,7.40
2023-10-14T22:01:03.460Z,12.00
2023-10-14T22:03:33.790Z,10.43
2023-10-14T22:06:02.137Z,7.28
2023-10-14T22:08:29.819Z,11.07
2023-10-14T22:10:57.564Z,9.73
2023-10-14T22:13:25.491Z,10.63
2023-10-14T22:15:54.978Z,6.57
2023-10-14T22:18:22.699Z,5.90
2023-10-14T22:20:51.834Z,9.98
2023-10-14T22:23:19.604Z,7.40
2023-10-14T22:25:47.503Z,9.27
2023-10-14T22:28:17.325Z,9.23
2023-10-14T22:30:47.234Z,10.43
2023-10-14T22:33:16.146Z,11.95
2023-10-14T22:35:45.451Z,8.15
2023-10-14T22:38:13.508Z,8.77
2023-10-14T22:40:45.795Z,7.55
2023-10-14T22:43:13.566Z,7.97
2023-10-14T22:45:41.603Z,7.72
2023-10-14T22:48:11.283Z,6.68
2023-10-14T22:50:39.219Z,6.93
2023-10-14T22:53:08.159Z,8.27
2023-10-14T22:55:35.901Z,7.57
2023-10-14T22:58:06.540Z,6.55
2023-10-14T23:00:34.904Z,8.48
2023-10-14T23:03:10.996Z,9.80
2023-10-14T23:05:44.000Z,5.72
2023-10-14T23:08:13.990Z,9.60
2023-10-14T23:10:42.345Z,6.72
2023-10-14T23:13:10.442Z,7.22
2023-10-14T23:15:40.673Z,6.03
2023-10-14T23:18:09.035Z,8.60
2023-10-14T23:20:37.792Z,7.97
2023-10-14T23:23:06.723Z,7.30
2023-10-14T23:25:36.730Z,5.82
2023-10-14T23:28:05.094Z,5.13
2023-10-14T23:30:32.873Z,5.95
2023-10-14T23:33:02.166Z,5.70
2023-10-14T23:35:30.135Z,5.15
2023-10-14T23:38:07.613Z,6.45
2023-10-14T23:40:35.900Z,4.87
2023-10-14T23:43:03.921Z,4.30
2023-10-14T23:45:33.352Z,4.35
2023-10-14T23:48:03.796Z,5.05
2023-10-14T23:50:39.598Z,6.22
2023-10-14T23:53:07.475Z,4.30
2023-10-14T23:55:35.862Z,6.30
2023-10-14T23:58:04.465Z,7.70
